sensor_id;sensor_type;location;lat;lon;timestamp;pressure;altitude;pressure_sealevel;temperature;humidity
71361;BME280;59166;48.908;1.870;2023-08-08T00:04:50;100642.31;;;15.53;100.00
71361;BME280;59166;48.908;1.870;2023-08-08T00:09:51;100646.97;;;15.52;100.00
71361;BME280;59166;48.908;1.870;2023-08-08T00:14:53;100636.97;;;15.42;100.00
71361;BME280;59166;48.908;1.870;2023-08-08T00:19:54;100633.75;;;15.35;100.00
71361;BME280;59166;48.908;1.870;2023-08-08T00:24:55;100638.19;;;15.26;100.00
71361;BME280;59166;48.908;1.870;2023-08-08T00:29:57;100628.16;;;15.17;100.00
71361;BME280;59166;48.908;1.870;2023-08-08T00:34:57;100628.97;;;15.17;100.00
71361;BME280;59166;48.908;1.870;2023-08-08T00:39:58;100624.09;;;15.14;100.00
71361;BME280;59166;48.908;1.870;2023-08-08T00:45:00;100617.56;;;15.15;100.00
71361;BME280;59166;48.908;1.870;2023-08-08T00:50:01;100610.47;;;15.19;100.00
71361;BME280;59166;48.908;1.870;2023-08-08T00:55:03;100612.63;;;15.17;100.00
71361;BME280;59166;48.908;1.870;2023-08-08T01:00:07;100615.41;;;15.12;100.00
71361;BME280;59166;48.908;1.870;2023-08-08T01:05:08;100610.22;;;15.16;100.00
71361;BME280;59166;48.908;1.870;2023-08-08T01:10:12;100602.06;;;15.11;100.00
71361;BME280;59166;48.908;1.870;2023-08-08T01:15:17;100597.75;;;15.10;100.00
71361;BME280;59166;48.908;1.870;2023-08-08T01:20:18;100598.03;;;15.08;100.00
71361;BME280;59166;48.908;1.870;2023-08-08T01:25:21;100602.66;;;15.08;100.00
71361;BME280;59166;48.908;1.870;2023-08-08T01:30:22;100603.47;;;15.08;100.00
71361;BME280;59166;48.908;1.870;2023-08-08T01:35:23;100604.03;;;15.05;100.00
71361;BME280;59166;48.908;1.870;2023-08-08T01:40:29;100601.81;;;15.07;100.00
71361;BME280;59166;48.908;1.870;2023-08-08T01:45:30;100601.31;;;15.05;100.00
71361;BME280;59166;48.908;1.870;2023-08-08T01:50:30;100590.13;;;15.07;100.00
71361;BME280;59166;48.908;1.870;2023-08-08T01:55:32;100582.22;;;15.10;100.00
71361;BME280;59166;48.908;1.870;2023-08-08T02:00:33;100579.78;;;15.09;100.00
71361;BME280;59166;48.908;1.870;2023-08-08T02:05:34;100578.97;;;15.08;100.00
71361;BME280;59166;48.908;1.870;2023-08-08T02:10:36;100584.16;;;15.05;100.00
71361;BME280;59166;48.908;1.870;2023-08-08T02:15:36;100573.56;;;15.03;100.00
71361;BME280;59166;48.908;1.870;2023-08-08T02:20:37;100574.13;;;15.00;100.00
71361;BME280;59166;48.908;1.870;2023-08-08T02:25:39;100580.09;;;15.02;100.00
71361;BME280;59166;48.908;1.870;2023-08-08T02:30:40;100572.50;;;14.99;100.00
71361;BME280;59166;48.908;1.870;2023-08-08T02:35:40;100565.44;;;14.93;100.00
71361;BME280;59166;48.908;1.870;2023-08-08T02:40:42;100567.59;;;15.01;100.00
71361;BME280;59166;48.908;1.870;2023-08-08T02:45:43;100566.28;;;14.93;100.00
71361;BME280;59166;48.908;1.870;2023-08-08T02:50:43;100558.94;;;14.94;100.00
71361;BME280;59166;48.908;1.870;2023-08-08T02:55:46;100573.59;;;14.93;100.00
71361;BME280;59166;48.908;1.870;2023-08-08T03:00:47;100566.00;;;14.90;100.00
71361;BME280;59166;48.908;1.870;2023-08-08T03:05:47;100571.19;;;14.86;100.00
71361;BME280;59166;48.908;1.870;2023-08-08T03:10:49;100574.72;;;14.87;100.00
71361;BME280;59166;48.908;1.870;2023-08-08T03:15:50;100572.31;;;14.80;100.00
71361;BME280;59166;48.908;1.870;2023-08-08T03:20:51;100577.25;;;14.78;100.00
71361;BME280;59166;48.908;1.870;2023-08-08T03:25:53;100571.00;;;14.73;100.00
71361;BME280;59166;48.908;1.870;2023-08-08T03:30:53;100566.13;;;14.70;100.00
71361;BME280;59166;48.908;1.870;2023-08-08T03:35:54;100565.09;;;14.66;100.00
71361;BME280;59166;48.908;1.870;2023-08-08T03:40:56;100569.69;;;14.65;100.00
71361;BME280;59166;48.908;1.870;2023-08-08T03:45:57;100582.22;;;14.61;100.00
71361;BME280;59166;48.908;1.870;2023-08-08T03:50:57;100579.53;;;14.56;100.00
71361;BME280;59166;48.908;1.870;2023-08-08T03:55:59;100568.94;;;14.50;100.00
71361;BME280;59166;48.908;1.870;2023-08-08T04:01:00;100573.88;;;14.42;100.00
71361;BME280;59166;48.908;1.870;2023-08-08T04:06:01;100572.56;;;14.35;100.00
71361;BME280;59166;48.908;1.870;2023-08-08T04:11:03;100573.97;;;14.27;100.00
71361;BME280;59166;48.908;1.870;2023-08-08T04:16:03;100578.56;;;14.27;100.00
71361;BME280;59166;48.908;1.870;2023-08-08T04:21:04;100575.03;;;14.26;100.00
71361;BME280;59166;48.908;1.870;2023-08-08T04:26:06;100582.66;;;14.24;100.00
71361;BME280;59166;48.908;1.870;2023-08-08T04:31:07;100585.66;;;14.23;100.00
71361;BME280;59166;48.908;1.870;2023-08-08T04:36:07;100589.19;;;14.23;100.00
71361;BME280;59166;48.908;1.870;2023-08-08T04:41:09;100590.81;;;14.24;100.00
71361;BME280;59166;48.908;1.870;2023-08-08T04:46:10;100592.97;;;14.27;100.00
71361;BME280;59166;48.908;1.870;2023-08-08T04:51:11;100585.09;;;14.31;100.00
71361;BME280;59166;48.908;1.870;2023-08-08T04:56:13;100579.34;;;14.32;100.00
71361;BME280;59166;48.908;1.870;2023-08-08T05:01:13;100584.50;;;14.39;100.00
71361;BME280;59166;48.908;1.870;2023-08-08T05:06:14;100580.44;;;14.41;100.00
71361;BME280;59166;48.908;1.870;2023-08-08T05:11:16;100574.44;;;14.39;100.00
71361;BME280;59166;48.908;1.870;2023-08-08T05:16:17;100570.38;;;14.37;100.00
71361;BME280;59166;48.908;1.870;2023-08-08T05:21:18;100585.91;;;14.31;100.00
71361;BME280;59166;48.908;1.870;2023-08-08T05:26:20;100579.09;;;14.29;100.00
71361;BME280;59166;48.908;1.870;2023-08-08T05:31:21;100582.09;;;14.27;100.00
71361;BME280;59166;48.908;1.870;2023-08-08T05:36:21;100574.47;;;14.29;100.00
71361;BME280;59166;48.908;1.870;2023-08-08T05:41:23;100571.75;;;14.29;100.00
71361;BME280;59166;48.908;1.870;2023-08-08T05:46:24;100570.66;;;14.35;100.00
71361;BME280;59166;48.908;1.870;2023-08-08T05:51:25;100580.69;;;14.45;100.00
71361;BME280;59166;48.908;1.870;2023-08-08T05:56:27;100583.09;;;14.47;100.00
71361;BME280;59166;48.908;1.870;2023-08-08T06:01:28;100590.97;;;14.53;100.00
71361;BME280;59166;48.908;1.870;2023-08-08T06:06:29;100592.31;;;14.56;100.00
71361;BME280;59166;48.908;1.870;2023-08-08T06:11:31;100616.91;;;14.79;100.00
71361;BME280;59166;48.908;1.870;2023-08-08T06:16:32;100612.72;;;15.07;100.00
71361;BME280;59166;48.908;1.870;2023-08-08T06:21:32;100607.69;;;15.24;100.00
71361;BME280;59166;48.908;1.870;2023-08-08T06:26:34;100624.94;;;15.49;100.00
71361;BME280;59166;48.908;1.870;2023-08-08T06:31:35;100619.72;;;15.52;100.00
71361;BME280;59166;48.908;1.870;2023-08-08T06:36:35;100621.03;;;15.60;100.00
71361;BME280;59166;48.908;1.870;2023-08-08T06:41:38;100607.41;;;15.60;100.00
71361;BME280;59166;48.908;1.870;2023-08-08T06:46:38;100610.06;;;15.65;100.00
71361;BME280;59166;48.908;1.870;2023-08-08T06:51:39;100597.41;;;15.79;100.00
71361;BME280;59166;48.908;1.870;2023-08-08T06:56:41;100605.50;;;15.89;100.00
71361;BME280;59166;48.908;1.870;2023-08-08T07:01:42;100597.22;;;15.99;100.00
71361;BME280;59166;48.908;1.870;2023-08-08T07:06:43;100586.22;;;16.09;100.00
71361;BME280;59166;48.908;1.870;2023-08-08T07:11:46;100602.47;;;16.43;99.26
71361;BME280;59166;48.908;1.870;2023-08-08T07:16:46;100586.69;;;16.59;99.94
71361;BME280;59166;48.908;1.870;2023-08-08T07:21:47;100586.00;;;16.72;94.44
71361;BME280;59166;48.908;1.870;2023-08-08T07:26:50;100593.97;;;16.87;94.34
71361;BME280;59166;48.908;1.870;2023-08-08T07:31:52;100590.22;;;17.02;92.55
71361;BME280;59166;48.908;1.870;2023-08-08T07:36:53;100587.84;;;16.95;92.52
71361;BME280;59166;48.908;1.870;2023-08-08T07:41:55;100594.91;;;16.96;90.23
71361;BME280;59166;48.908;1.870;2023-08-08T07:46:56;100585.41;;;17.12;92.16
71361;BME280;59166;48.908;1.870;2023-08-08T07:51:57;100587.63;;;17.29;90.52
71361;BME280;59166;48.908;1.870;2023-08-08T07:56:59;100577.03;;;17.41;85.21
71361;BME280;59166;48.908;1.870;2023-08-08T08:02:00;100569.72;;;17.36;81.45
71361;BME280;59166;48.908;1.870;2023-08-08T08:07:01;100586.69;;;17.52;83.60
71361;BME280;59166;48.908;1.870;2023-08-08T08:12:04;100568.22;;;17.63;82.43
71361;BME280;59166;48.908;1.870;2023-08-08T08:17:05;100574.03;;;18.02;81.73
71361;BME280;59166;48.908;1.870;2023-08-08T08:22:06;100568.59;;;18.29;78.35
71361;BME280;59166;48.908;1.870;2023-08-08T08:27:09;100574.75;;;18.48;74.79
71361;BME280;59166;48.908;1.870;2023-08-08T08:32:09;100574.72;;;18.62;73.31
71361;BME280;59166;48.908;1.870;2023-08-08T08:37:10;100583.06;;;18.57;73.89
71361;BME280;59166;48.908;1.870;2023-08-08T08:42:14;100576.53;;;18.67;71.87
71361;BME280;59166;48.908;1.870;2023-08-08T08:47:17;100576.31;;;18.77;75.01
71361;BME280;59166;48.908;1.870;2023-08-08T08:52:21;100576.75;;;18.70;77.23
71361;BME280;59166;48.908;1.870;2023-08-08T08:57:23;100577.22;;;19.44;75.17
71361;BME280;59166;48.908;1.870;2023-08-08T09:02:24;100582.09;;;19.78;69.15
71361;BME280;59166;48.908;1.870;2023-08-08T09:07:28;100573.53;;;20.10;67.79
71361;BME280;59166;48.908;1.870;2023-08-08T09:12:31;100584.47;;;20.41;66.85
71361;BME280;59166;48.908;1.870;2023-08-08T09:17:32;100586.38;;;21.06;64.85
71361;BME280;59166;48.908;1.870;2023-08-08T09:22:32;100585.34;;;21.70;62.12
71361;BME280;59166;48.908;1.870;2023-08-08T09:27:35;100563.41;;;21.44;63.58
71361;BME280;59166;48.908;1.870;2023-08-08T09:32:36;100573.78;;;22.03;63.36
71361;BME280;59166;48.908;1.870;2023-08-08T09:37:37;100560.44;;;21.75;63.85
71361;BME280;59166;48.908;1.870;2023-08-08T09:42:40;100552.91;;;22.02;66.96
71361;BME280;59166;48.908;1.870;2023-08-08T09:47:41;100544.59;;;22.39;62.54
71361;BME280;59166;48.908;1.870;2023-08-08T09:52:43;100548.91;;;22.49;59.97
71361;BME280;59166;48.908;1.870;2023-08-08T09:57:46;100542.69;;;22.02;60.32
71361;BME280;59166;48.908;1.870;2023-08-08T10:02:47;100548.97;;;22.11;64.63
71361;BME280;59166;48.908;1.870;2023-08-08T10:07:48;100543.75;;;22.18;61.15
71361;BME280;59166;48.908;1.870;2023-08-08T10:12:52;100530.56;;;22.32;61.17
71361;BME280;59166;48.908;1.870;2023-08-08T10:17:54;100530.41;;;22.58;61.94
71361;BME280;59166;48.908;1.870;2023-08-08T10:22:55;100522.34;;;22.74;64.05
71361;BME280;59166;48.908;1.870;2023-08-08T10:28:05;100533.16;;;22.99;59.36
71361;BME280;59166;48.908;1.870;2023-08-08T10:33:15;100519.53;;;22.62;61.86
71361;BME280;59166;48.908;1.870;2023-08-08T10:38:16;100531.75;;;22.43;60.34
71361;BME280;59166;48.908;1.870;2023-08-08T10:43:25;100540.63;;;22.78;62.67
71361;BME280;59166;48.908;1.870;2023-08-08T10:48:27;100528.59;;;22.62;66.69
71361;BME280;59166;48.908;1.870;2023-08-08T10:53:28;100545.66;;;21.88;65.17
71361;BME280;59166;48.908;1.870;2023-08-08T10:58:37;100538.31;;;22.01;64.01
71361;BME280;59166;48.908;1.870;2023-08-08T11:03:39;100538.84;;;21.94;65.87
71361;BME280;59166;48.908;1.870;2023-08-08T11:08:40;100538.09;;;22.15;62.25
71361;BME280;59166;48.908;1.870;2023-08-08T11:13:43;100511.88;;;22.88;58.25
71361;BME280;59166;48.908;1.870;2023-08-08T11:18:44;100515.78;;;23.40;54.72
71361;BME280;59166;48.908;1.870;2023-08-08T11:23:47;100514.03;;;23.36;56.22
71361;BME280;59166;48.908;1.870;2023-08-08T11:28:52;100501.38;;;23.68;58.14
71361;BME280;59166;48.908;1.870;2023-08-08T11:33:54;100500.06;;;23.41;57.92
71361;BME280;59166;48.908;1.870;2023-08-08T11:38:55;100494.81;;;22.74;61.63
71361;BME280;59166;48.908;1.870;2023-08-08T11:43:58;100480.50;;;23.46;57.60
71361;BME280;59166;48.908;1.870;2023-08-08T11:49:03;100484.00;;;24.16;60.34
71361;BME280;59166;48.908;1.870;2023-08-08T11:54:05;100465.72;;;23.50;54.03
71361;BME280;59166;48.908;1.870;2023-08-08T11:59:07;100456.66;;;23.74;58.36
71361;BME280;59166;48.908;1.870;2023-08-08T12:04:08;100466.41;;;24.20;52.14
71361;BME280;59166;48.908;1.870;2023-08-08T12:09:11;100454.91;;;24.70;49.71
71361;BME280;59166;48.908;1.870;2023-08-08T12:14:14;100455.03;;;24.22;52.91
71361;BME280;59166;48.908;1.870;2023-08-08T12:19:15;100448.47;;;23.90;51.70
71361;BME280;59166;48.908;1.870;2023-08-08T12:24:16;100451.38;;;24.58;54.60
71361;BME280;59166;48.908;1.870;2023-08-08T12:29:18;100437.03;;;24.52;55.02
71361;BME280;59166;48.908;1.870;2023-08-08T12:34:18;100434.56;;;24.63;49.73
71361;BME280;59166;48.908;1.870;2023-08-08T12:39:19;100435.84;;;24.53;51.34
71361;BME280;59166;48.908;1.870;2023-08-08T12:44:22;100425.28;;;24.43;49.13
71361;BME280;59166;48.908;1.870;2023-08-08T12:49:23;100420.50;;;24.68;48.49
71361;BME280;59166;48.908;1.870;2023-08-08T12:54:24;100424.50;;;24.70;49.13
71361;BME280;59166;48.908;1.870;2023-08-08T12:59:26;100414.34;;;24.46;54.06
71361;BME280;59166;48.908;1.870;2023-08-08T13:04:27;100418.88;;;24.79;49.38
71361;BME280;59166;48.908;1.870;2023-08-08T13:09:27;100417.75;;;25.11;48.96
71361;BME280;59166;48.908;1.870;2023-08-08T13:14:31;100416.00;;;25.19;48.16
71361;BME280;59166;48.908;1.870;2023-08-08T13:19:32;100429.78;;;25.62;49.44
71361;BME280;59166;48.908;1.870;2023-08-08T13:24:32;100413.69;;;25.83;48.36
71361;BME280;59166;48.908;1.870;2023-08-08T13:29:34;100395.59;;;25.55;50.30
71361;BME280;59166;48.908;1.870;2023-08-08T13:34:35;100399.72;;;25.61;48.08
71361;BME280;59166;48.908;1.870;2023-08-08T13:39:36;100402.56;;;25.64;48.74
71361;BME280;59166;48.908;1.870;2023-08-08T13:44:39;100386.47;;;25.70;47.85
71361;BME280;59166;48.908;1.870;2023-08-08T13:49:39;100390.59;;;25.44;45.54
71361;BME280;59166;48.908;1.870;2023-08-08T13:54:40;100383.91;;;25.45;47.95
71361;BME280;59166;48.908;1.870;2023-08-08T13:59:42;100405.78;;;25.50;45.92
71361;BME280;59166;48.908;1.870;2023-08-08T14:04:43;100397.97;;;25.25;45.80
71361;BME280;59166;48.908;1.870;2023-08-08T14:09:44;100390.41;;;25.06;48.38
71361;BME280;59166;48.908;1.870;2023-08-08T14:14:47;100388.81;;;24.77;45.78
71361;BME280;59166;48.908;1.870;2023-08-08T14:19:47;100385.00;;;24.82;49.17
71361;BME280;59166;48.908;1.870;2023-08-08T14:24:48;100384.81;;;24.90;49.79
71361;BME280;59166;48.908;1.870;2023-08-08T14:29:51;100381.97;;;24.87;50.56
71361;BME280;59166;48.908;1.870;2023-08-08T14:34:51;100386.69;;;24.59;49.20
71361;BME280;59166;48.908;1.870;2023-08-08T14:39:53;100392.63;;;24.33;49.67
71361;BME280;59166;48.908;1.870;2023-08-08T14:44:55;100402.69;;;24.53;52.58
71361;BME280;59166;48.908;1.870;2023-08-08T14:49:56;100403.50;;;24.53;48.47
71361;BME280;59166;48.908;1.870;2023-08-08T14:54:57;100406.75;;;24.43;47.46
71361;BME280;59166;48.908;1.870;2023-08-08T14:59:59;100404.25;;;24.38;47.31
71361;BME280;59166;48.908;1.870;2023-08-08T15:05:00;100399.69;;;24.30;51.71
71361;BME280;59166;48.908;1.870;2023-08-08T15:10:01;100395.78;;;24.19;51.01
71361;BME280;59166;48.908;1.870;2023-08-08T15:15:05;100399.03;;;24.21;50.30
71361;BME280;59166;48.908;1.870;2023-08-08T15:20:07;100397.56;;;23.87;53.38
71361;BME280;59166;48.908;1.870;2023-08-08T15:25:08;100387.44;;;23.79;50.14
71361;BME280;59166;48.908;1.870;2023-08-08T15:30:11;100394.25;;;23.58;54.33
71361;BME280;59166;48.908;1.870;2023-08-08T15:35:12;100385.16;;;23.69;49.20
71361;BME280;59166;48.908;1.870;2023-08-08T15:40:13;100366.16;;;23.80;52.29
71361;BME280;59166;48.908;1.870;2023-08-08T15:45:15;100361.56;;;23.72;52.11
71361;BME280;59166;48.908;1.870;2023-08-08T15:50:16;100362.28;;;23.57;52.56
71361;BME280;59166;48.908;1.870;2023-08-08T15:55:17;100354.00;;;23.57;52.69
71361;BME280;59166;48.908;1.870;2023-08-08T16:00:19;100357.94;;;23.43;53.19
71361;BME280;59166;48.908;1.870;2023-08-08T16:05:20;100358.16;;;23.26;52.31
71361;BME280;59166;48.908;1.870;2023-08-08T16:10:23;100359.41;;;23.29;51.54
71361;BME280;59166;48.908;1.870;2023-08-08T16:15:25;100340.25;;;23.44;51.17
71361;BME280;59166;48.908;1.870;2023-08-08T16:20:26;100321.50;;;23.38;52.90
71361;BME280;59166;48.908;1.870;2023-08-08T16:25:27;100325.97;;;23.42;53.75
71361;BME280;59166;48.908;1.870;2023-08-08T16:30:29;100317.59;;;23.39;52.93
71361;BME280;59166;48.908;1.870;2023-08-08T16:35:30;100314.34;;;23.25;53.73
71361;BME280;59166;48.908;1.870;2023-08-08T16:40:31;100323.63;;;23.08;55.43
71361;BME280;59166;48.908;1.870;2023-08-08T16:45:33;100324.31;;;23.05;56.63
71361;BME280;59166;48.908;1.870;2023-08-08T16:50:34;100312.84;;;23.03;58.20
71361;BME280;59166;48.908;1.870;2023-08-08T16:55:34;100339.84;;;23.10;58.23
71361;BME280;59166;48.908;1.870;2023-08-08T17:00:37;100337.41;;;22.96;59.35
71361;BME280;59166;48.908;1.870;2023-08-08T17:05:37;100353.91;;;22.84;59.18
71361;BME280;59166;48.908;1.870;2023-08-08T17:10:38;100339.53;;;22.66;61.57
71361;BME280;59166;48.908;1.870;2023-08-08T17:15:41;100336.16;;;22.61;61.05
71361;BME280;59166;48.908;1.870;2023-08-08T17:20:42;100339.03;;;22.52;65.96
71361;BME280;59166;48.908;1.870;2023-08-08T17:25:42;100338.81;;;22.36;68.55
71361;BME280;59166;48.908;1.870;2023-08-08T17:30:45;100348.63;;;22.25;72.11
71361;BME280;59166;48.908;1.870;2023-08-08T17:35:45;100349.50;;;22.17;71.21
71361;BME280;59166;48.908;1.870;2023-08-08T17:40:46;100336.09;;;21.95;73.23
71361;BME280;59166;48.908;1.870;2023-08-08T17:45:48;100336.50;;;21.85;73.07
71361;BME280;59166;48.908;1.870;2023-08-08T17:50:49;100344.47;;;21.69;74.54
71361;BME280;59166;48.908;1.870;2023-08-08T17:55:53;100344.84;;;21.59;74.33
71361;BME280;59166;48.908;1.870;2023-08-08T18:00:56;100352.41;;;21.41;74.95
71361;BME280;59166;48.908;1.870;2023-08-08T18:05:57;100345.81;;;21.34;72.63
71361;BME280;59166;48.908;1.870;2023-08-08T18:10:57;100348.13;;;21.23;73.17
71361;BME280;59166;48.908;1.870;2023-08-08T18:16:00;100358.19;;;21.11;74.51
71361;BME280;59166;48.908;1.870;2023-08-08T18:21:00;100341.88;;;21.06;74.88
71361;BME280;59166;48.908;1.870;2023-08-08T18:26:01;100343.06;;;20.96;77.41
71361;BME280;59166;48.908;1.870;2023-08-08T18:31:03;100341.13;;;20.88;77.16
71361;BME280;59166;48.908;1.870;2023-08-08T18:36:05;100326.91;;;20.86;76.32
71361;BME280;59166;48.908;1.870;2023-08-08T18:41:05;100306.41;;;20.75;77.46
71361;BME280;59166;48.908;1.870;2023-08-08T18:46:08;100305.13;;;20.72;76.36
71361;BME280;59166;48.908;1.870;2023-08-08T18:51:08;100324.25;;;20.60;77.62
71361;BME280;59166;48.908;1.870;2023-08-08T18:56:09;100306.00;;;20.56;78.80
71361;BME280;59166;48.908;1.870;2023-08-08T19:01:12;100288.72;;;20.55;74.87
71361;BME280;59166;48.908;1.870;2023-08-08T19:06:12;100287.91;;;20.55;75.99
71361;BME280;59166;48.908;1.870;2023-08-08T19:11:13;100292.31;;;20.47;79.46
71361;BME280;59166;48.908;1.870;2023-08-08T19:16:15;100290.38;;;20.39;77.13
71361;BME280;59166;48.908;1.870;2023-08-08T19:21:16;100271.00;;;20.35;78.17
71361;BME280;59166;48.908;1.870;2023-08-08T19:26:17;100271.16;;;20.30;79.33
71361;BME280;59166;48.908;1.870;2023-08-08T19:31:19;100248.94;;;20.23;78.38
71361;BME280;59166;48.908;1.870;2023-08-08T19:36:20;100254.06;;;20.25;76.74
71361;BME280;59166;48.908;1.870;2023-08-08T19:41:21;100254.69;;;20.30;78.22
71361;BME280;59166;48.908;1.870;2023-08-08T19:46:24;100277.81;;;20.29;79.16
71361;BME280;59166;48.908;1.870;2023-08-08T19:51:25;100265.56;;;20.27;77.89
71361;BME280;59166;48.908;1.870;2023-08-08T19:56:26;100294.44;;;20.16;80.82
71361;BME280;59166;48.908;1.870;2023-08-08T20:01:28;100305.69;;;19.88;83.44
71361;BME280;59166;48.908;1.870;2023-08-08T20:06:29;100305.84;;;19.75;83.76
71361;BME280;59166;48.908;1.870;2023-08-08T20:11:30;100307.41;;;19.50;83.39
71361;BME280;59166;48.908;1.870;2023-08-08T20:16:32;100307.84;;;19.26;85.49
71361;BME280;59166;48.908;1.870;2023-08-08T20:21:33;100310.38;;;19.14;86.00
71361;BME280;59166;48.908;1.870;2023-08-08T20:26:34;100319.84;;;19.08;84.48
71361;BME280;59166;48.908;1.870;2023-08-08T20:31:36;100323.34;;;19.00;86.86
71361;BME280;59166;48.908;1.870;2023-08-08T20:36:37;100314.47;;;18.94;85.39
71361;BME280;59166;48.908;1.870;2023-08-08T20:41:38;100332.72;;;18.77;86.25
71361;BME280;59166;48.908;1.870;2023-08-08T20:46:41;100336.03;;;18.65;86.98
71361;BME280;59166;48.908;1.870;2023-08-08T20:51:42;100336.28;;;18.55;88.51
71361;BME280;59166;48.908;1.870;2023-08-08T20:56:44;100339.78;;;18.47;88.77
71361;BME280;59166;48.908;1.870;2023-08-08T21:01:46;100356.13;;;18.38;89.73
71361;BME280;59166;48.908;1.870;2023-08-08T21:06:47;100359.94;;;18.29;91.94
71361;BME280;59166;48.908;1.870;2023-08-08T21:11:48;100349.78;;;18.29;93.17
71361;BME280;59166;48.908;1.870;2023-08-08T21:16:50;100376.75;;;18.22;95.96
71361;BME280;59166;48.908;1.870;2023-08-08T21:21:51;100372.28;;;18.26;97.26
71361;BME280;59166;48.908;1.870;2023-08-08T21:26:52;100368.22;;;18.37;96.33
71361;BME280;59166;48.908;1.870;2023-08-08T21:31:54;100370.00;;;18.42;94.79
71361;BME280;59166;48.908;1.870;2023-08-08T21:36:55;100365.78;;;18.36;96.31
71361;BME280;59166;48.908;1.870;2023-08-08T21:41:56;100359.69;;;18.39;94.98
71361;BME280;59166;48.908;1.870;2023-08-08T21:46:59;100337.97;;;18.42;93.92
71361;BME280;59166;48.908;1.870;2023-08-08T21:52:00;100331.50;;;18.38;94.17
71361;BME280;59166;48.908;1.870;2023-08-08T21:57:00;100333.25;;;18.34;93.13
71361;BME280;59166;48.908;1.870;2023-08-08T22:02:03;100327.91;;;18.29;93.92
71361;BME280;59166;48.908;1.870;2023-08-08T22:07:04;100338.03;;;18.29;93.80
71361;BME280;59166;48.908;1.870;2023-08-08T22:12:05;100344.44;;;18.24;91.86
71361;BME280;59166;48.908;1.870;2023-08-08T22:17:08;100330.56;;;18.21;94.79
71361;BME280;59166;48.908;1.870;2023-08-08T22:22:09;100322.69;;;18.19;95.89
71361;BME280;59166;48.908;1.870;2023-08-08T22:27:10;100327.34;;;18.19;94.39
71361;BME280;59166;48.908;1.870;2023-08-08T22:32:12;100326.13;;;18.11;95.32
71361;BME280;59166;48.908;1.870;2023-08-08T22:37:13;100321.91;;;18.05;96.37
71361;BME280;59166;48.908;1.870;2023-08-08T22:42:14;100317.69;;;17.99;95.98
71361;BME280;59166;48.908;1.870;2023-08-08T22:47:16;100315.78;;;17.86;96.40
71361;BME280;59166;48.908;1.870;2023-08-08T22:52:17;100318.25;;;17.74;97.37
71361;BME280;59166;48.908;1.870;2023-08-08T22:57:18;100308.53;;;17.68;98.33
71361;BME280;59166;48.908;1.870;2023-08-08T23:02:20;100291.47;;;17.62;98.26
71361;BME280;59166;48.908;1.870;2023-08-08T23:07:21;100292.38;;;17.58;97.61
71361;BME280;59166;48.908;1.870;2023-08-08T23:12:22;100282.78;;;17.46;98.30
71361;BME280;59166;48.908;1.870;2023-08-08T23:17:25;100289.66;;;17.44;99.40
71361;BME280;59166;48.908;1.870;2023-08-08T23:22:25;100286.44;;;17.42;98.68
71361;BME280;59166;48.908;1.870;2023-08-08T23:27:26;100301.81;;;17.38;99.13
71361;BME280;59166;48.908;1.870;2023-08-08T23:32:29;100305.88;;;17.27;100.00
71361;BME280;59166;48.908;1.870;2023-08-08T23:37:30;100313.97;;;17.18;100.00
71361;BME280;59166;48.908;1.870;2023-08-08T23:42:31;100309.13;;;17.15;100.00
71361;BME280;59166;48.908;1.870;2023-08-08T23:47:33;100317.69;;;17.09;100.00
71361;BME280;59166;48.908;1.870;2023-08-08T23:58:11;100327.16;;;16.84;100.00
